Time;durP1;ratioP1;P1;durP2;ratioP2;P2;SDS_P1;SDS_P2;PMS_P1;PMS_P2;Temp;Humidity;BMP_temperature;BMP_pressure;BME280_temperature;BME280_humidity;BME280_pressure;Samples;Min_cycle;Max_cycle;Signal;HPM_P1;HPM_P2
2022/12/24 00:01:47;;;;;;;4.22;2.58;;;9.80;99.90;;;;;;10442232;28;20025;-64
2022/12/24 00:06:47;;;;;;;5.93;2.50;;;9.80;99.90;;;;;;10426563;28;20521;-66
2022/12/24 00:11:48;;;;;;;3.80;2.38;;;9.80;99.90;;;;;;10432464;28;20492;-69
2022/12/24 00:16:48;;;;;;;2.88;2.00;;;9.80;99.90;;;;;;10444813;28;20029;-72
2022/12/24 00:21:49;;;;;;;3.35;2.00;;;9.90;99.90;;;;;;10434825;28;20032;-68
2022/12/24 00:26:49;;;;;;;4.30;2.70;;;9.80;99.90;;;;;;10444204;28;20286;-72
2022/12/24 00:31:50;;;;;;;3.78;1.88;;;9.80;99.90;;;;;;10427209;28;20544;-70
2022/12/24 00:36:51;;;;;;;3.65;2.08;;;9.80;99.90;;;;;;10432762;28;20036;-70
2022/12/24 00:41:51;;;;;;;3.78;2.00;;;9.80;99.90;;;;;;10434182;28;20029;-66
2022/12/24 00:46:52;;;;;;;3.58;2.00;;;9.80;99.90;;;;;;10447333;28;20052;-64
2022/12/24 00:51:53;;;;;;;3.92;2.42;;;9.80;99.90;;;;;;10430576;28;20021;-68
2022/12/24 00:56:53;;;;;;;3.97;1.63;;;9.80;99.90;;;;;;10416530;28;20190;-65
2022/12/24 01:01:54;;;;;;;3.35;1.95;;;9.80;99.90;;;;;;10432463;28;20082;-66
2022/12/24 01:06:55;;;;;;;4.63;2.17;;;9.80;99.90;;;;;;10419321;28;20033;-70
2022/12/24 01:11:55;;;;;;;2.72;1.58;;;9.80;99.90;;;;;;10433549;28;20025;-65
2022/12/24 01:16:56;;;;;;;2.70;1.70;;;9.80;99.90;;;;;;10441185;28;20033;-65
2022/12/24 01:21:57;;;;;;;2.72;1.90;;;9.80;99.90;;;;;;10428830;28;20017;-74
2022/12/24 01:26:58;;;;;;;3.47;2.00;;;9.80;99.90;;;;;;10422232;28;20037;-73
2022/12/24 01:31:58;;;;;;;3.78;1.63;;;9.80;99.90;;;;;;10434819;28;20571;-68
2022/12/24 01:36:59;;;;;;;2.35;1.42;;;9.80;99.90;;;;;;10424483;28;20033;-65
2022/12/24 01:47:27;;;;;;;3.22;2.00;;;9.80;99.90;;;;;;10422755;28;20041;-65
2022/12/24 01:52:32;;;;;;;3.33;1.80;;;9.80;99.90;;;;;;10417752;28;20033;-65
2022/12/24 01:57:40;;;;;;;4.07;1.60;;;9.80;99.90;;;;;;10439986;28;20028;-68
2022/12/24 02:02:43;;;;;;;3.13;1.55;;;9.80;99.90;;;;;;10439542;28;20469;-65
2022/12/24 02:07:45;;;;;;;3.20;1.70;;;9.80;99.90;;;;;;10430443;28;20013;-64
2022/12/24 02:12:46;;;;;;;2.63;1.42;;;9.80;99.90;;;;;;10430166;28;20025;-72
2022/12/24 02:18:02;;;;;;;3.63;1.80;;;9.80;99.90;;;;;;10434608;28;20111;-68
2022/12/24 02:23:32;;;;;;;4.80;2.15;;;9.80;99.90;;;;;;10428210;28;20474;-71
2022/12/24 02:28:47;;;;;;;3.15;1.55;;;9.80;99.90;;;;;;10422028;28;20145;-68
2022/12/24 02:34:07;;;;;;;2.45;1.48;;;9.80;99.90;;;;;;10426062;28;20039;-68
2022/12/24 02:39:33;;;;;;;4.55;1.52;;;9.80;99.90;;;;;;10424436;28;20359;-67
2022/12/24 02:44:47;;;;;;;4.50;1.45;;;9.80;99.90;;;;;;10391749;28;20033;-70
2022/12/24 02:49:47;;;;;;;4.95;1.27;;;9.80;99.90;;;;;;10435787;28;20412;-66
2022/12/24 02:54:48;;;;;;;5.68;1.52;;;9.80;99.90;;;;;;10415725;28;20028;-68
2022/12/24 03:00:03;;;;;;;4.88;1.90;;;9.80;99.90;;;;;;10418634;28;20374;-73
2022/12/24 03:05:22;;;;;;;4.20;1.40;;;9.80;99.90;;;;;;10427786;28;20028;-66
2022/12/24 03:10:35;;;;;;;8.02;2.03;;;9.80;99.90;;;;;;10429008;28;20060;-72
2022/12/24 03:15:37;;;;;;;4.65;1.70;;;9.80;99.90;;;;;;10424540;28;20029;-69
2022/12/24 03:20:42;;;;;;;3.45;1.40;;;9.80;99.90;;;;;;10431832;28;20108;-71
2022/12/24 03:25:44;;;;;;;4.38;1.75;;;9.80;99.90;;;;;;10439729;28;20029;-64
2022/12/24 03:30:47;;;;;;;4.45;1.45;;;9.80;99.90;;;;;;10431561;28;20436;-64
2022/12/24 03:35:48;;;;;;;5.85;1.75;;;9.80;99.90;;;;;;10438809;28;20425;-71
2022/12/24 03:40:48;;;;;;;2.22;1.35;;;9.20;99.90;;;;;;10443764;28;20128;-65
2022/12/24 03:45:49;;;;;;;6.20;1.60;;;9.80;99.90;;;;;;10447881;28;20481;-65
2022/12/24 03:50:49;;;;;;;3.60;1.23;;;9.80;99.90;;;;;;10451285;28;20021;-71
2022/12/24 03:55:50;;;;;;;2.33;1.02;;;9.80;99.90;;;;;;10442229;28;20048;-65
2022/12/24 04:00:52;;;;;;;3.33;1.60;;;9.80;99.90;;;;;;10425537;28;20017;-72
2022/12/24 04:06:04;;;;;;;6.68;1.55;;;9.80;99.90;;;;;;10433386;28;20041;-69
2022/12/24 04:11:06;;;;;;;4.70;1.58;;;9.90;99.90;;;;;;10446721;28;20025;-73
2022/12/24 04:16:10;;;;;;;4.85;1.30;;;9.80;99.90;;;;;;10446576;28;20025;-65
2022/12/24 04:21:10;;;;;;;5.65;1.55;;;9.80;99.90;;;;;;10443979;28;20040;-66
2022/12/24 04:26:12;;;;;;;4.05;1.48;;;9.80;99.90;;;;;;10443781;28;20104;-71
2022/12/24 04:31:15;;;;;;;4.30;1.20;;;9.80;99.90;;;;;;10440030;28;20009;-64
2022/12/24 04:36:17;;;;;;;5.80;1.27;;;9.80;99.90;;;;;;10439282;28;20028;-67
2022/12/24 04:41:20;;;;;;;5.97;1.25;;;9.80;99.90;;;;;;10436674;28;20028;-64
2022/12/24 04:46:24;;;;;;;4.20;1.40;;;9.80;99.90;;;;;;10442687;28;20425;-74
2022/12/24 04:51:25;;;;;;;6.82;1.70;;;9.80;99.90;;;;;;10435869;28;20013;-66
2022/12/24 04:56:29;;;;;;;4.63;1.27;;;9.80;99.90;;;;;;10445338;28;20052;-72
2022/12/24 05:01:31;;;;;;;6.25;1.13;;;9.90;99.90;;;;;;10441547;28;20017;-71
2022/12/24 05:06:32;;;;;;;6.35;1.50;;;9.80;99.90;;;;;;10437922;28;20021;-65
2022/12/24 05:11:33;;;;;;;4.85;1.75;;;9.90;99.90;;;;;;10412182;28;20018;-66
2022/12/24 05:16:33;;;;;;;2.83;1.10;;;9.90;99.90;;;;;;10429072;28;20029;-67
2022/12/24 05:21:34;;;;;;;3.20;1.05;;;9.90;99.90;;;;;;10436366;28;20044;-69
2022/12/24 05:26:40;;;;;;;2.35;1.33;;;9.90;99.90;;;;;;10441060;28;20021;-64
2022/12/24 05:31:43;;;;;;;8.82;1.90;;;9.80;99.90;;;;;;10435977;28;20465;-65
2022/12/24 05:36:44;;;;;;;4.13;1.75;;;9.80;99.90;;;;;;10422336;28;20490;-69
2022/12/24 05:41:46;;;;;;;2.05;1.35;;;9.80;99.90;;;;;;10428683;28;20151;-65
2022/12/24 05:46:46;;;;;;;6.90;1.20;;;9.80;99.90;;;;;;10425752;28;20688;-66
2022/12/24 05:51:47;;;;;;;3.65;1.23;;;9.80;99.90;;;;;;10423044;28;20146;-69
2022/12/24 05:56:47;;;;;;;4.30;1.40;;;9.80;99.90;;;;;;10443476;28;20886;-67
2022/12/24 06:01:48;;;;;;;5.95;1.80;;;9.80;99.90;;;;;;10436651;28;20020;-67
2022/12/24 06:06:49;;;;;;;4.40;1.20;;;9.80;99.90;;;;;;10441556;28;20033;-70
2022/12/24 06:11:49;;;;;;;6.85;1.80;;;9.80;99.90;;;;;;10439117;28;20168;-66
2022/12/24 06:16:50;;;;;;;9.32;1.88;;;9.80;99.90;;;;;;10437779;28;20029;-69
2022/12/24 06:21:51;;;;;;;6.97;1.60;;;9.80;99.90;;;;;;10424504;28;20669;-66
2022/12/24 06:26:51;;;;;;;6.47;1.67;;;9.80;99.90;;;;;;10431776;28;20036;-68
2022/12/24 06:31:52;;;;;;;7.88;1.52;;;9.80;99.90;;;;;;10424933;28;20025;-70
2022/12/24 06:36:52;;;;;;;5.57;1.95;;;9.80;99.90;;;;;;10431360;28;20052;-71
2022/12/24 06:41:53;;;;;;;7.95;1.52;;;9.80;99.90;;;;;;10423801;28;20033;-72
2022/12/24 06:46:54;;;;;;;5.95;1.52;;;9.80;99.90;;;;;;10433898;28;20104;-67
2022/12/24 06:51:54;;;;;;;8.32;1.50;;;9.80;99.90;;;;;;10423225;28;20021;-66
2022/12/24 06:56:55;;;;;;;5.03;1.50;;;9.80;99.90;;;;;;10421261;28;20067;-70
2022/12/24 07:01:55;;;;;;;6.20;1.60;;;9.80;99.90;;;;;;10419695;28;20036;-66
2022/12/24 07:06:56;;;;;;;10.55;1.60;;;9.80;99.90;;;;;;10436060;28;20078;-72
2022/12/24 07:11:57;;;;;;;5.72;1.45;;;9.80;99.90;;;;;;10443201;28;20025;-68
2022/12/24 07:16:57;;;;;;;7.15;1.33;;;9.80;99.90;;;;;;10440990;28;20036;-67
2022/12/24 07:21:58;;;;;;;8.65;1.40;;;9.80;99.90;;;;;;10441991;28;20037;-67
2022/12/24 07:26:58;;;;;;;3.00;1.00;;;9.80;99.90;;;;;;10442706;28;20174;-67
2022/12/24 07:31:59;;;;;;;3.72;1.20;;;9.80;99.90;;;;;;10444105;28;20381;-69
2022/12/24 07:37:00;;;;;;;6.70;1.73;;;9.80;99.90;;;;;;10442263;28;20044;-65
2022/12/24 07:42:00;;;;;;;4.85;1.48;;;9.80;99.90;;;;;;10438645;28;20017;-71
2022/12/24 07:47:01;;;;;;;8.50;1.30;;;9.90;99.90;;;;;;10444264;28;20079;-70
2022/12/24 07:52:02;;;;;;;8.23;1.60;;;9.80;99.90;;;;;;10442511;28;20032;-65
2022/12/24 07:57:03;;;;;;;9.02;1.58;;;9.80;99.90;;;;;;10441510;28;20161;-65
2022/12/24 08:02:03;;;;;;;10.75;2.05;;;9.80;99.90;;;;;;10441687;28;20273;-70
2022/12/24 08:07:05;;;;;;;9.75;1.80;;;9.80;99.90;;;;;;10439546;28;20142;-74
2022/12/24 08:12:07;;;;;;;10.43;2.22;;;9.80;99.90;;;;;;10431675;28;20024;-71
2022/12/24 08:17:08;;;;;;;10.05;2.25;;;10.40;99.90;;;;;;10433709;28;20030;-71
2022/12/24 08:22:08;;;;;;;6.60;1.88;;;9.80;99.90;;;;;;10438438;28;20354;-63
2022/12/24 08:27:09;;;;;;;9.20;1.48;;;9.80;99.90;;;;;;10445609;28;20037;-66
2022/12/24 08:32:09;;;;;;;2.95;1.40;;;9.80;99.90;;;;;;10443346;28;20152;-64
2022/12/24 08:37:10;;;;;;;5.72;1.65;;;9.90;99.90;;;;;;10423180;28;20056;-64
2022/12/24 08:42:11;;;;;;;4.18;1.50;;;9.90;99.90;;;;;;10425200;28;20488;-63
2022/12/24 08:47:12;;;;;;;6.10;1.40;;;9.90;99.90;;;;;;10428900;28;20029;-70
2022/12/24 08:52:13;;;;;;;6.43;1.98;;;9.90;99.90;;;;;;10442324;28;20025;-69
2022/12/24 08:57:13;;;;;;;5.22;1.67;;;9.90;99.90;;;;;;10439852;28;20524;-62
2022/12/24 09:02:14;;;;;;;6.60;2.13;;;9.90;99.90;;;;;;10440820;28;20013;-63
2022/12/24 09:07:15;;;;;;;6.78;1.70;;;10.00;99.90;;;;;;10436808;28;20461;-71
2022/12/24 09:12:15;;;;;;;5.97;1.60;;;9.90;99.90;;;;;;10436607;28;20017;-71
2022/12/24 09:17:16;;;;;;;4.15;1.33;;;9.90;99.90;;;;;;10441802;28;20025;-67
2022/12/24 09:22:17;;;;;;;7.13;1.50;;;9.90;99.90;;;;;;10444608;28;20028;-63
2022/12/24 09:27:17;;;;;;;9.02;2.15;;;10.00;99.90;;;;;;10443319;28;20511;-72
2022/12/24 09:32:18;;;;;;;4.53;1.20;;;9.90;99.90;;;;;;10438869;28;20024;-71
2022/12/24 09:37:19;;;;;;;6.65;1.38;;;10.00;99.90;;;;;;10441013;28;20124;-65
2022/12/24 09:42:38;;;;;;;4.75;1.60;;;9.90;99.90;;;;;;10434147;28;20116;-71
2022/12/24 09:47:46;;;;;;;6.35;1.55;;;9.90;99.90;;;;;;10444699;28;20489;-70
2022/12/24 09:52:48;;;;;;;6.32;1.25;;;9.90;99.90;;;;;;10430777;28;20028;-64
2022/12/24 09:57:52;;;;;;;9.65;1.45;;;10.00;99.90;;;;;;10433019;28;20037;-64
2022/12/24 10:02:53;;;;;;;6.25;1.48;;;10.00;99.90;;;;;;10439427;28;20040;-64
2022/12/24 10:07:59;;;;;;;4.15;1.60;;;10.10;99.90;;;;;;10438396;28;20032;-64
2022/12/24 10:13:16;;;;;;;3.03;1.20;;;10.00;99.90;;;;;;10431205;28;20025;-64
2022/12/24 10:18:33;;;;;;;5.25;1.17;;;10.00;99.90;;;;;;10428999;28;20031;-64
2022/12/24 10:23:56;;;;;;;4.55;2.13;;;10.00;99.90;;;;;;10423121;28;20493;-69
2022/12/24 10:29:05;;;;;;;7.38;1.85;;;10.00;99.90;;;;;;10438557;28;20060;-70
2022/12/24 10:34:14;;;;;;;5.53;1.50;;;10.00;99.90;;;;;;10434039;28;20040;-63
2022/12/24 10:39:24;;;;;;;6.80;1.35;;;10.20;99.90;;;;;;10441018;28;20044;-66
2022/12/24 10:44:29;;;;;;;3.13;1.20;;;10.10;99.90;;;;;;10432098;28;20036;-72
2022/12/24 10:49:58;;;;;;;4.68;1.60;;;10.00;99.90;;;;;;10437562;28;20029;-72
2022/12/24 10:55:04;;;;;;;8.80;1.60;;;10.00;99.90;;;;;;10432777;28;20052;-71
2022/12/24 11:00:16;;;;;;;6.85;1.38;;;10.10;99.90;;;;;;10431809;28;20033;-65
2022/12/24 11:05:32;;;;;;;2.67;1.20;;;10.00;99.90;;;;;;10432477;28;20099;-72
2022/12/24 11:10:38;;;;;;;3.70;1.35;;;10.10;99.90;;;;;;10432075;28;20017;-67
2022/12/24 11:15:39;;;;;;;5.80;1.40;;;10.10;99.90;;;;;;10434761;28;20064;-66
2022/12/24 11:20:40;;;;;;;4.93;1.30;;;10.10;99.90;;;;;;10436756;28;20428;-70
2022/12/24 11:25:48;;;;;;;3.78;1.73;;;10.10;99.90;;;;;;10434980;28;20105;-72
2022/12/24 11:30:56;;;;;;;5.80;1.70;;;10.10;99.90;;;;;;10432482;28;20302;-66
2022/12/24 11:36:02;;;;;;;7.28;1.77;;;10.10;99.90;;;;;;10433881;28;20045;-70
2022/12/24 11:41:14;;;;;;;6.80;1.70;;;10.10;99.90;;;;;;10435221;28;20031;-68
2022/12/24 11:46:36;;;;;;;8.45;1.42;;;10.10;99.90;;;;;;10441005;28;20385;-66
2022/12/24 11:51:39;;;;;;;5.30;1.50;;;10.20;99.90;;;;;;10430966;28;20148;-66
2022/12/24 11:56:46;;;;;;;8.00;1.70;;;10.20;99.90;;;;;;10441797;28;20064;-66
2022/12/24 12:01:58;;;;;;;3.88;1.33;;;10.20;99.90;;;;;;10445385;28;20009;-66
2022/12/24 12:07:23;;;;;;;7.25;1.70;;;10.20;99.90;;;;;;10444084;28;20036;-67
2022/12/24 12:12:28;;;;;;;8.07;1.88;;;10.20;99.90;;;;;;10437438;28;20025;-71
2022/12/24 12:17:39;;;;;;;4.38;1.48;;;10.20;99.90;;;;;;10442862;28;20311;-70
2022/12/24 12:22:53;;;;;;;3.92;1.30;;;10.20;99.90;;;;;;10444959;28;20021;-67
2022/12/24 12:27:56;;;;;;;7.05;1.40;;;10.30;99.90;;;;;;10443751;28;20033;-68
2022/12/24 12:33:24;;;;;;;5.32;1.27;;;10.30;99.90;;;;;;10443838;28;20040;-66
2022/12/24 12:38:29;;;;;;;8.75;1.77;;;10.30;99.90;;;;;;10448778;28;20563;-69
2022/12/24 12:43:55;;;;;;;11.93;1.65;;;10.30;99.90;;;;;;10446117;28;20024;-67
2022/12/24 12:49:14;;;;;;;6.18;1.60;;;10.30;99.90;;;;;;10438636;28;20027;-67
2022/12/24 12:54:53;;;;;;;7.43;1.35;;;10.30;99.90;;;;;;10439336;28;20029;-66
2022/12/24 12:59:56;;;;;;;;;;;10.30;99.90;;;;;;10438575;28;20028;-68
2022/12/24 13:04:59;;;;;;;7.05;1.63;;;10.40;99.90;;;;;;10432714;28;20002;-68
2022/12/24 13:10:09;;;;;;;6.57;1.58;;;10.40;99.90;;;;;;10427656;28;20036;-68
2022/12/24 13:15:39;;;;;;;9.77;1.80;;;10.40;99.90;;;;;;10451096;28;20029;-69
2022/12/24 13:20:47;;;;;;;6.28;1.52;;;10.40;99.90;;;;;;10432365;28;20522;-69
2022/12/24 13:25:56;;;;;;;6.57;1.55;;;10.50;99.90;;;;;;10435770;28;20111;-68
2022/12/24 13:31:00;;;;;;;10.13;2.40;;;10.50;99.90;;;;;;10429988;28;20023;-67
2022/12/24 13:36:01;;;;;;;4.13;1.55;;;10.50;99.90;;;;;;10437065;28;20044;-67
2022/12/24 13:41:30;;;;;;;4.60;1.48;;;10.50;99.90;;;;;;10442623;28;20493;-68
2022/12/24 13:46:49;;;;;;;6.28;1.40;;;10.50;99.90;;;;;;10439876;28;20508;-65
2022/12/24 13:51:50;;;;;;;7.75;1.67;;;10.50;99.90;;;;;;10438906;28;20484;-64
2022/12/24 13:56:51;;;;;;;6.50;1.58;;;10.50;99.90;;;;;;10442759;28;20032;-66
2022/12/24 14:01:52;;;;;;;4.63;1.75;;;10.60;99.90;;;;;;10421920;28;20385;-66
2022/12/24 14:06:54;;;;;;;8.63;1.55;;;10.50;99.90;;;;;;10441856;28;20440;-66
2022/12/24 14:11:58;;;;;;;5.35;1.48;;;10.50;99.90;;;;;;10419541;28;20028;-68
2022/12/24 14:17:01;;;;;;;10.88;2.45;;;10.50;99.90;;;;;;10430832;28;20036;-65
2022/12/24 14:22:21;;;;;;;4.55;1.70;;;10.50;99.90;;;;;;10434761;28;20028;-66
2022/12/24 14:27:40;;;;;;;10.13;1.50;;;10.50;99.90;;;;;;10434124;28;20029;-72
2022/12/24 14:32:41;;;;;;;9.57;2.15;;;10.50;99.90;;;;;;10431162;28;20538;-68
2022/12/24 14:37:57;;;;;;;10.57;1.98;;;10.40;99.90;;;;;;10428954;28;20029;-67
2022/12/24 14:43:23;;;;;;;7.90;2.10;;;10.40;99.90;;;;;;10428748;28;20025;-69
2022/12/24 14:48:51;;;;;;;7.25;1.67;;;10.40;99.90;;;;;;10435456;28;20139;-71
2022/12/24 14:54:31;;;;;;;7.03;1.67;;;10.40;99.90;;;;;;10426078;28;20120;-72
2022/12/24 14:59:50;;;;;;;6.05;1.70;;;10.40;99.90;;;;;;10424500;28;20033;-72
2022/12/24 15:05:19;;;;;;;8.25;1.95;;;10.30;99.90;;;;;;10425657;28;20025;-69
2022/12/24 15:10:27;;;;;;;6.43;1.42;;;10.30;99.90;;;;;;10440096;28;20028;-68
2022/12/24 15:15:28;;;;;;;8.20;2.08;;;10.30;99.90;;;;;;10425870;28;20037;-68
2022/12/24 15:20:30;;;;;;;6.28;1.58;;;10.30;99.90;;;;;;10438133;28;20029;-70
2022/12/24 15:25:31;;;;;;;7.13;2.00;;;10.30;99.90;;;;;;10439383;28;20029;-69
2022/12/24 15:30:32;;;;;;;10.02;1.90;;;10.20;99.90;;;;;;10442592;28;20068;-70
2022/12/24 15:35:54;;;;;;;8.02;1.75;;;10.20;99.90;;;;;;10423001;28;20362;-69
2022/12/24 15:40:55;;;;;;;6.55;1.65;;;10.20;99.90;;;;;;10433801;28;20029;-68
2022/12/24 15:45:56;;;;;;;9.10;1.95;;;10.20;99.90;;;;;;10441073;28;20397;-71
2022/12/24 15:51:01;;;;;;;7.43;1.80;;;10.20;99.90;;;;;;10445941;28;20029;-67
2022/12/24 15:56:09;;;;;;;5.18;1.60;;;10.20;99.90;;;;;;10444742;28;20037;-67
2022/12/24 16:01:14;;;;;;;5.37;1.77;;;10.20;99.90;;;;;;10437784;28;20025;-65
2022/12/24 16:06:14;;;;;;;10.88;2.25;;;10.10;99.90;;;;;;10449238;28;20033;-64
2022/12/24 16:11:22;;;;;;;5.95;1.55;;;10.10;99.90;;;;;;10433633;28;20025;-69
2022/12/24 16:16:35;;;;;;;6.93;1.35;;;10.10;99.90;;;;;;10436205;28;20378;-67
2022/12/24 16:21:39;;;;;;;5.97;1.98;;;10.10;99.90;;;;;;10439692;28;20028;-63
2022/12/24 16:26:40;;;;;;;8.25;2.75;;;10.00;99.90;;;;;;10432259;28;20035;-75
2022/12/24 16:31:56;;;;;;;6.40;2.47;;;10.00;99.90;;;;;;10423119;28;20021;-76
2022/12/24 16:36:59;;;;;;;7.28;2.45;;;10.00;99.90;;;;;;10420843;28;20069;-75
2022/12/24 16:47:29;;;;;;;6.95;1.92;;;10.00;99.90;;;;;;10434974;28;20028;-72
2022/12/24 16:52:34;;;;;;;9.77;2.17;;;9.90;99.90;;;;;;10432329;28;20090;-67
2022/12/24 16:57:38;;;;;;;6.78;1.40;;;9.90;99.90;;;;;;10441878;28;20056;-67
2022/12/24 17:02:38;;;;;;;8.25;2.25;;;9.90;99.90;;;;;;10432877;28;20033;-72
2022/12/24 17:07:39;;;;;;;9.88;2.20;;;9.90;99.90;;;;;;10444792;28;20041;-70
2022/12/24 17:12:40;;;;;;;9.00;1.98;;;9.90;99.90;;;;;;10439620;28;20028;-62
2022/12/24 17:17:40;;;;;;;4.75;1.45;;;9.80;99.90;;;;;;10435715;28;20055;-63
2022/12/24 17:22:41;;;;;;;6.95;1.88;;;9.90;99.90;;;;;;10439100;28;20009;-63
2022/12/24 17:27:42;;;;;;;5.38;1.80;;;9.80;99.90;;;;;;10425273;28;20032;-71
2022/12/24 17:32:43;;;;;;;6.88;1.75;;;9.80;99.90;;;;;;10433361;28;20021;-68
2022/12/24 17:37:43;;;;;;;5.90;1.45;;;9.80;99.90;;;;;;10441460;28;20192;-66
2022/12/24 17:42:44;;;;;;;8.35;1.90;;;9.90;99.90;;;;;;10443077;28;20392;-67
2022/12/24 17:47:44;;;;;;;9.73;2.20;;;9.80;99.90;;;;;;10443384;28;20094;-63
2022/12/24 17:52:45;;;;;;;4.95;1.67;;;9.80;99.90;;;;;;10439329;28;21453;-63
2022/12/24 17:57:45;;;;;;;7.47;1.55;;;9.70;99.90;;;;;;10438928;28;20040;-63
2022/12/24 18:02:46;;;;;;;6.88;1.65;;;9.70;99.90;;;;;;10423368;28;20116;-67
2022/12/24 18:07:47;;;;;;;7.18;1.75;;;9.70;99.90;;;;;;10431879;28;20503;-66
2022/12/24 18:12:47;;;;;;;6.22;2.05;;;9.70;99.90;;;;;;10428030;28;20337;-65
2022/12/24 18:17:52;;;;;;;6.13;1.60;;;9.70;99.90;;;;;;10437223;28;20124;-64
2022/12/24 18:22:53;;;;;;;6.18;1.52;;;9.70;99.90;;;;;;10431130;28;20356;-64
2022/12/24 18:27:53;;;;;;;9.85;2.10;;;9.70;99.90;;;;;;10434173;28;20370;-64
2022/12/24 18:32:54;;;;;;;6.38;1.60;;;9.70;99.90;;;;;;10441055;28;20071;-68
2022/12/24 18:37:54;;;;;;;9.73;2.13;;;9.70;99.90;;;;;;10440449;28;20240;-64
2022/12/24 18:42:55;;;;;;;6.88;2.03;;;9.70;99.90;;;;;;10436688;28;20031;-65
2022/12/24 18:47:56;;;;;;;3.92;1.40;;;9.60;99.90;;;;;;10440247;28;20473;-64
2022/12/24 18:52:56;;;;;;;4.93;1.48;;;9.60;99.90;;;;;;10439775;28;20024;-64
2022/12/24 18:57:57;;;;;;;7.88;1.80;;;9.60;99.90;;;;;;10436395;28;20044;-67
2022/12/24 19:02:57;;;;;;;5.97;1.88;;;9.70;99.90;;;;;;10422974;28;20584;-67
2022/12/24 19:07:58;;;;;;;7.78;1.85;;;9.90;99.90;;;;;;10418468;28;20512;-66
2022/12/24 19:12:59;;;;;;;7.97;2.10;;;9.70;99.90;;;;;;10439471;28;20036;-66
2022/12/24 19:17:59;;;;;;;6.32;1.75;;;9.70;99.90;;;;;;10432350;28;20127;-67
2022/12/24 19:23:00;;;;;;;7.38;2.30;;;9.70;99.90;;;;;;10434723;28;20374;-66
2022/12/24 19:28:07;;;;;;;6.88;1.80;;;9.60;99.90;;;;;;10441802;28;20381;-63
2022/12/24 19:33:08;;;;;;;6.32;1.92;;;9.60;99.90;;;;;;10435212;28;20523;-67
2022/12/24 19:38:09;;;;;;;6.18;2.38;;;9.50;99.90;;;;;;10439351;28;20021;-66
2022/12/24 19:43:09;;;;;;;6.43;1.88;;;9.50;99.90;;;;;;10437700;28;20021;-66
2022/12/24 19:48:10;;;;;;;4.53;1.75;;;9.40;99.90;;;;;;10438389;28;20052;-68
2022/12/24 19:53:10;;;;;;;5.03;1.67;;;9.40;99.90;;;;;;10431974;28;20227;-67
2022/12/24 19:58:11;;;;;;;5.30;1.90;;;9.40;99.90;;;;;;10441106;28;20032;-65
2022/12/24 20:03:12;;;;;;;3.58;1.83;;;9.40;99.90;;;;;;10436869;28;20378;-64
2022/12/24 20:08:13;;;;;;;6.18;2.10;;;9.30;99.90;;;;;;10432255;28;20021;-67
2022/12/24 20:13:14;;;;;;;4.05;2.10;;;9.40;99.90;;;;;;10440624;28;20531;-67
2022/12/24 20:18:14;;;;;;;5.18;1.65;;;9.70;99.90;;;;;;10443627;28;20025;-63
2022/12/24 20:23:15;;;;;;;3.65;1.80;;;9.30;99.90;;;;;;10442807;28;20021;-65
2022/12/24 20:28:15;;;;;;;3.58;1.75;;;9.30;99.90;;;;;;10443018;28;20028;-65
2022/12/24 20:33:16;;;;;;;4.55;2.20;;;9.30;99.90;;;;;;10445401;28;20017;-68
2022/12/24 20:38:17;;;;;;;5.82;2.25;;;9.30;99.90;;;;;;10445349;28;20120;-66
2022/12/24 20:43:17;;;;;;;5.75;2.10;;;9.30;99.90;;;;;;10442758;28;20433;-63
2022/12/24 20:48:18;;;;;;;4.38;1.80;;;9.30;99.90;;;;;;10449791;28;20184;-63
2022/12/24 20:53:19;;;;;;;5.68;2.15;;;9.20;99.90;;;;;;10441104;28;20029;-64
2022/12/24 20:58:19;;;;;;;3.95;2.10;;;9.20;99.90;;;;;;10442606;28;20032;-65
2022/12/24 21:03:20;;;;;;;5.80;2.28;;;9.30;99.90;;;;;;10434769;28;20021;-65
2022/12/24 21:08:20;;;;;;;8.38;2.00;;;9.20;99.90;;;;;;10442237;28;20217;-63
2022/12/24 21:13:21;;;;;;;8.27;2.10;;;9.20;99.90;;;;;;10450036;28;20028;-63
2022/12/24 21:18:22;;;;;;;4.35;1.73;;;9.20;99.90;;;;;;10443526;28;20051;-63
2022/12/24 21:23:22;;;;;;;4.72;2.10;;;9.20;99.90;;;;;;10441883;28;20017;-63
2022/12/24 21:28:23;;;;;;;4.72;2.03;;;9.20;99.90;;;;;;10446430;28;20049;-62
2022/12/24 21:33:25;;;;;;;5.63;1.98;;;9.20;99.90;;;;;;10449089;28;20039;-65
2022/12/24 21:38:26;;;;;;;4.78;1.90;;;9.20;99.90;;;;;;10447467;28;20123;-63
2022/12/24 21:43:30;;;;;;;5.28;2.08;;;9.20;99.90;;;;;;10423565;28;20187;-64
2022/12/24 21:59:14;;;;;;;6.07;2.70;;;9.10;99.90;;;;;;10432203;28;20193;-63
2022/12/24 22:04:15;;;;;;;4.03;2.35;;;9.10;99.90;;;;;;10443547;28;20028;-63
2022/12/24 22:14:35;;;;;;;4.75;2.10;;;9.10;99.90;;;;;;10427981;28;20020;-63
2022/12/24 22:19:35;;;;;;;5.53;2.30;;;9.10;99.90;;;;;;10433611;28;20690;-65
2022/12/24 22:24:36;;;;;;;5.43;2.40;;;9.00;99.90;;;;;;10434308;28;20235;-63
2022/12/24 22:29:37;;;;;;;4.32;1.95;;;9.00;99.90;;;;;;10445106;28;20020;-66
2022/12/24 22:34:37;;;;;;;5.20;2.70;;;9.00;99.90;;;;;;10409950;28;20021;-63
2022/12/24 22:39:38;;;;;;;6.25;2.40;;;9.00;99.90;;;;;;10441696;28;20017;-64
2022/12/24 22:44:38;;;;;;;4.00;1.88;;;9.00;99.90;;;;;;10438226;28;20012;-67
2022/12/24 22:49:39;;;;;;;4.85;2.20;;;9.00;99.90;;;;;;10435860;28;20019;-63
2022/12/24 22:54:39;;;;;;;4.93;2.15;;;9.00;99.90;;;;;;10439740;28;20063;-64
2022/12/24 22:59:40;;;;;;;5.70;2.58;;;9.00;99.90;;;;;;10430799;28;20016;-64
2022/12/24 23:04:41;;;;;;;5.40;2.70;;;9.00;99.90;;;;;;10437252;28;20032;-66
2022/12/24 23:09:41;;;;;;;5.50;2.80;;;9.00;99.90;;;;;;10429264;28;20009;-67
2022/12/24 23:14:57;;;;;;;5.63;2.92;;;9.20;99.90;;;;;;10428940;28;20047;-68
2022/12/24 23:20:00;;;;;;;5.15;2.70;;;9.10;99.90;;;;;;10423719;28;20033;-68
2022/12/24 23:25:01;;;;;;;7.47;2.70;;;9.10;99.90;;;;;;10439168;28;20096;-68
2022/12/24 23:30:02;;;;;;;4.75;2.95;;;9.10;99.90;;;;;;10439527;28;20508;-69
2022/12/24 23:35:04;;;;;;;6.28;2.55;;;9.00;99.90;;;;;;10441698;28;20131;-67
2022/12/24 23:40:05;;;;;;;6.65;2.80;;;9.00;99.90;;;;;;10443921;28;20354;-67
2022/12/24 23:45:06;;;;;;;5.70;3.17;;;9.00;99.90;;;;;;10443613;28;20044;-67
2022/12/24 23:50:07;;;;;;;7.57;3.47;;;9.00;99.90;;;;;;10437609;28;20100;-68
2022/12/24 23:55:08;;;;;;;3.97;2.55;;;9.00;99.90;;;;;;10455891;28;20025;-68
